sensor_id;sensor_type;location;lat;lon;timestamp;P1;durP1;ratioP1;P2;durP2;ratioP2
4313;SDS011;2170;48.794;9.182;2022-10-01T00:01:12;7.33;;;6.83;;
4313;SDS011;2170;48.794;9.182;2022-10-01T00:03:40;7.80;;;7.10;;
4313;SDS011;2170;48.794;9.182;2022-10-01T00:06:09;7.63;;;7.03;;
4313;SDS011;2170;48.794;9.182;2022-10-01T00:08:36;7.50;;;6.97;;
4313;SDS011;2170;48.794;9.182;2022-10-01T00:11:09;7.80;;;7.17;;
4313;SDS011;2170;48.794;9.182;2022-10-01T00:13:38;7.50;;;6.90;;
4313;SDS011;2170;48.794;9.182;2022-10-01T00:16:06;7.43;;;6.83;;
4313;SDS011;2170;48.794;9.182;2022-10-01T00:18:34;7.87;;;7.17;;
4313;SDS011;2170;48.794;9.182;2022-10-01T00:21:04;7.30;;;6.70;;
4313;SDS011;2170;48.794;9.182;2022-10-01T00:23:31;7.50;;;6.80;;
4313;SDS011;2170;48.794;9.182;2022-10-01T00:26:06;7.40;;;6.73;;
4313;SDS011;2170;48.794;9.182;2022-10-01T00:28:34;7.80;;;7.10;;
4313;SDS011;2170;48.794;9.182;2022-10-01T00:31:02;7.00;;;6.50;;
4313;SDS011;2170;48.794;9.182;2022-10-01T00:33:30;7.77;;;7.17;;
4313;SDS011;2170;48.794;9.182;2022-10-01T00:35:57;6.80;;;6.30;;
4313;SDS011;2170;48.794;9.182;2022-10-01T00:38:24;7.37;;;6.87;;
4313;SDS011;2170;48.794;9.182;2022-10-01T00:40:52;8.00;;;7.40;;
4313;SDS011;2170;48.794;9.182;2022-10-01T00:43:19;7.87;;;7.27;;
4313;SDS011;2170;48.794;9.182;2022-10-01T00:45:48;7.83;;;7.13;;
4313;SDS011;2170;48.794;9.182;2022-10-01T00:48:15;6.87;;;6.27;;
4313;SDS011;2170;48.794;9.182;2022-10-01T00:50:43;7.80;;;7.10;;
4313;SDS011;2170;48.794;9.182;2022-10-01T00:53:13;7.33;;;6.80;;
4313;SDS011;2170;48.794;9.182;2022-10-01T00:55:43;7.73;;;7.03;;
4313;SDS011;2170;48.794;9.182;2022-10-01T00:58:13;7.70;;;7.10;;
4313;SDS011;2170;48.794;9.182;2022-10-01T01:00:45;7.13;;;6.40;;
4313;SDS011;2170;48.794;9.182;2022-10-01T01:03:16;7.80;;;7.10;;
4313;SDS011;2170;48.794;9.182;2022-10-01T01:05:45;6.63;;;6.13;;
4313;SDS011;2170;48.794;9.182;2022-10-01T01:08:14;7.37;;;6.77;;
4313;SDS011;2170;48.794;9.182;2022-10-01T01:10:52;7.30;;;6.80;;
4313;SDS011;2170;48.794;9.182;2022-10-01T01:13:26;6.97;;;6.37;;
4313;SDS011;2170;48.794;9.182;2022-10-01T01:15:58;7.40;;;6.90;;
4313;SDS011;2170;48.794;9.182;2022-10-01T01:18:33;6.40;;;5.93;;
4313;SDS011;2170;48.794;9.182;2022-10-01T01:21:14;7.00;;;6.40;;
4313;SDS011;2170;48.794;9.182;2022-10-01T01:26:37;7.63;;;7.07;;
4313;SDS011;2170;48.794;9.182;2022-10-01T01:29:12;5.80;;;5.40;;
4313;SDS011;2170;48.794;9.182;2022-10-01T01:31:45;6.93;;;6.43;;
4313;SDS011;2170;48.794;9.182;2022-10-01T01:34:24;7.27;;;6.23;;
4313;SDS011;2170;48.794;9.182;2022-10-01T01:36:56;6.70;;;6.17;;
4313;SDS011;2170;48.794;9.182;2022-10-01T01:39:28;6.80;;;6.30;;
4313;SDS011;2170;48.794;9.182;2022-10-01T01:42:05;6.20;;;5.80;;
4313;SDS011;2170;48.794;9.182;2022-10-01T01:44:36;6.90;;;6.33;;
4313;SDS011;2170;48.794;9.182;2022-10-01T01:47:05;5.90;;;5.40;;
4313;SDS011;2170;48.794;9.182;2022-10-01T01:49:39;6.70;;;6.20;;
4313;SDS011;2170;48.794;9.182;2022-10-01T01:52:08;6.17;;;5.57;;
4313;SDS011;2170;48.794;9.182;2022-10-01T01:54:44;5.93;;;5.43;;
4313;SDS011;2170;48.794;9.182;2022-10-01T01:57:21;6.57;;;6.03;;
4313;SDS011;2170;48.794;9.182;2022-10-01T02:00:00;6.30;;;5.80;;
4313;SDS011;2170;48.794;9.182;2022-10-01T02:02:29;5.90;;;5.40;;
4313;SDS011;2170;48.794;9.182;2022-10-01T02:05:00;5.83;;;5.40;;
4313;SDS011;2170;48.794;9.182;2022-10-01T02:07:42;5.73;;;5.33;;
4313;SDS011;2170;48.794;9.182;2022-10-01T02:10:26;6.13;;;5.63;;
4313;SDS011;2170;48.794;9.182;2022-10-01T02:13:04;5.97;;;5.50;;
4313;SDS011;2170;48.794;9.182;2022-10-01T02:15:47;5.73;;;5.33;;
4313;SDS011;2170;48.794;9.182;2022-10-01T02:18:21;4.80;;;4.50;;
4313;SDS011;2170;48.794;9.182;2022-10-01T02:20:55;6.03;;;5.43;;
4313;SDS011;2170;48.794;9.182;2022-10-01T02:23:29;5.10;;;4.53;;
4313;SDS011;2170;48.794;9.182;2022-10-01T02:26:03;5.77;;;5.27;;
4313;SDS011;2170;48.794;9.182;2022-10-01T02:28:37;5.20;;;4.90;;
4313;SDS011;2170;48.794;9.182;2022-10-01T02:31:08;5.90;;;5.40;;
4313;SDS011;2170;48.794;9.182;2022-10-01T02:33:38;6.40;;;5.70;;
4313;SDS011;2170;48.794;9.182;2022-10-01T02:36:10;5.10;;;4.80;;
4313;SDS011;2170;48.794;9.182;2022-10-01T02:38:44;5.60;;;5.10;;
4313;SDS011;2170;48.794;9.182;2022-10-01T02:41:13;6.00;;;5.50;;
4313;SDS011;2170;48.794;9.182;2022-10-01T02:43:43;5.57;;;5.17;;
4313;SDS011;2170;48.794;9.182;2022-10-01T02:46:19;4.80;;;4.43;;
4313;SDS011;2170;48.794;9.182;2022-10-01T02:48:55;4.80;;;4.40;;
4313;SDS011;2170;48.794;9.182;2022-10-01T02:51:27;5.00;;;4.70;;
4313;SDS011;2170;48.794;9.182;2022-10-01T02:53:59;6.03;;;5.40;;
4313;SDS011;2170;48.794;9.182;2022-10-01T02:56:35;5.07;;;4.77;;
4313;SDS011;2170;48.794;9.182;2022-10-01T02:59:21;4.80;;;4.33;;
4313;SDS011;2170;48.794;9.182;2022-10-01T03:01:51;5.07;;;4.67;;
4313;SDS011;2170;48.794;9.182;2022-10-01T03:04:23;5.90;;;5.50;;
4313;SDS011;2170;48.794;9.182;2022-10-01T03:06:52;5.83;;;4.87;;
4313;SDS011;2170;48.794;9.182;2022-10-01T03:09:28;5.73;;;5.13;;
4313;SDS011;2170;48.794;9.182;2022-10-01T03:12:01;5.67;;;5.23;;
4313;SDS011;2170;48.794;9.182;2022-10-01T03:14:34;6.30;;;5.20;;
4313;SDS011;2170;48.794;9.182;2022-10-01T03:17:05;4.83;;;4.53;;
4313;SDS011;2170;48.794;9.182;2022-10-01T03:19:33;6.20;;;5.60;;
4313;SDS011;2170;48.794;9.182;2022-10-01T03:22:02;6.83;;;6.07;;
4313;SDS011;2170;48.794;9.182;2022-10-01T03:24:31;5.50;;;5.00;;
4313;SDS011;2170;48.794;9.182;2022-10-01T03:26:59;6.10;;;5.70;;
4313;SDS011;2170;48.794;9.182;2022-10-01T03:29:30;5.30;;;4.90;;
4313;SDS011;2170;48.794;9.182;2022-10-01T03:31:59;5.97;;;5.53;;
4313;SDS011;2170;48.794;9.182;2022-10-01T03:34:29;6.73;;;6.23;;
4313;SDS011;2170;48.794;9.182;2022-10-01T03:36:57;6.00;;;5.60;;
4313;SDS011;2170;48.794;9.182;2022-10-01T03:39:26;6.80;;;6.20;;
4313;SDS011;2170;48.794;9.182;2022-10-01T03:41:56;6.10;;;5.60;;
4313;SDS011;2170;48.794;9.182;2022-10-01T03:44:26;5.53;;;5.20;;
4313;SDS011;2170;48.794;9.182;2022-10-01T03:47:00;7.07;;;5.90;;
4313;SDS011;2170;48.794;9.182;2022-10-01T03:49:30;6.03;;;5.50;;
4313;SDS011;2170;48.794;9.182;2022-10-01T03:52:01;5.50;;;4.63;;
4313;SDS011;2170;48.794;9.182;2022-10-01T03:54:31;5.07;;;4.73;;
4313;SDS011;2170;48.794;9.182;2022-10-01T03:56:59;5.43;;;5.03;;
4313;SDS011;2170;48.794;9.182;2022-10-01T03:59:30;5.13;;;4.63;;
4313;SDS011;2170;48.794;9.182;2022-10-01T04:02:00;5.73;;;5.23;;
4313;SDS011;2170;48.794;9.182;2022-10-01T04:04:35;6.73;;;4.80;;
4313;SDS011;2170;48.794;9.182;2022-10-01T04:07:08;6.23;;;5.30;;
4313;SDS011;2170;48.794;9.182;2022-10-01T04:09:39;5.20;;;4.70;;
4313;SDS011;2170;48.794;9.182;2022-10-01T04:12:08;4.63;;;4.33;;
4313;SDS011;2170;48.794;9.182;2022-10-01T04:14:43;5.00;;;4.60;;
4313;SDS011;2170;48.794;9.182;2022-10-01T04:17:13;4.60;;;4.30;;
4313;SDS011;2170;48.794;9.182;2022-10-01T04:19:50;5.30;;;3.80;;
4313;SDS011;2170;48.794;9.182;2022-10-01T04:22:27;3.50;;;3.30;;
4313;SDS011;2170;48.794;9.182;2022-10-01T04:24:58;5.63;;;4.20;;
4313;SDS011;2170;48.794;9.182;2022-10-01T04:27:30;4.10;;;3.70;;
4313;SDS011;2170;48.794;9.182;2022-10-01T04:30:01;3.57;;;3.17;;
4313;SDS011;2170;48.794;9.182;2022-10-01T04:32:32;3.47;;;3.27;;
4313;SDS011;2170;48.794;9.182;2022-10-01T04:35:03;3.33;;;3.13;;
4313;SDS011;2170;48.794;9.182;2022-10-01T04:37:35;4.10;;;3.87;;
4313;SDS011;2170;48.794;9.182;2022-10-01T04:40:09;3.67;;;3.47;;
4313;SDS011;2170;48.794;9.182;2022-10-01T04:42:41;3.67;;;3.37;;
4313;SDS011;2170;48.794;9.182;2022-10-01T04:45:09;3.57;;;3.37;;
4313;SDS011;2170;48.794;9.182;2022-10-01T04:47:45;3.80;;;3.50;;
4313;SDS011;2170;48.794;9.182;2022-10-01T04:50:16;4.00;;;3.70;;
4313;SDS011;2170;48.794;9.182;2022-10-01T04:52:48;3.60;;;3.27;;
4313;SDS011;2170;48.794;9.182;2022-10-01T04:55:16;3.33;;;3.13;;
4313;SDS011;2170;48.794;9.182;2022-10-01T04:57:48;3.07;;;2.93;;
4313;SDS011;2170;48.794;9.182;2022-10-01T05:00:19;3.80;;;3.60;;
4313;SDS011;2170;48.794;9.182;2022-10-01T05:02:52;3.30;;;3.10;;
4313;SDS011;2170;48.794;9.182;2022-10-01T05:05:32;3.77;;;3.50;;
4313;SDS011;2170;48.794;9.182;2022-10-01T05:08:02;3.30;;;3.10;;
4313;SDS011;2170;48.794;9.182;2022-10-01T05:10:32;3.73;;;3.20;;
4313;SDS011;2170;48.794;9.182;2022-10-01T05:13:03;3.23;;;3.03;;
4313;SDS011;2170;48.794;9.182;2022-10-01T05:15:37;3.60;;;3.30;;
4313;SDS011;2170;48.794;9.182;2022-10-01T05:18:12;3.20;;;3.00;;
4313;SDS011;2170;48.794;9.182;2022-10-01T05:20:47;3.20;;;3.00;;
4313;SDS011;2170;48.794;9.182;2022-10-01T05:23:19;3.30;;;2.77;;
4313;SDS011;2170;48.794;9.182;2022-10-01T05:25:50;4.53;;;4.20;;
4313;SDS011;2170;48.794;9.182;2022-10-01T05:28:21;4.17;;;3.10;;
4313;SDS011;2170;48.794;9.182;2022-10-01T05:30:55;3.37;;;3.07;;
4313;SDS011;2170;48.794;9.182;2022-10-01T05:33:28;4.60;;;2.90;;
4313;SDS011;2170;48.794;9.182;2022-10-01T05:36:00;2.80;;;2.60;;
4313;SDS011;2170;48.794;9.182;2022-10-01T05:38:29;2.97;;;2.87;;
4313;SDS011;2170;48.794;9.182;2022-10-01T05:41:00;3.17;;;2.97;;
4313;SDS011;2170;48.794;9.182;2022-10-01T05:43:31;2.63;;;2.40;;
4313;SDS011;2170;48.794;9.182;2022-10-01T05:46:00;3.40;;;3.10;;
4313;SDS011;2170;48.794;9.182;2022-10-01T05:48:28;2.70;;;2.50;;
4313;SDS011;2170;48.794;9.182;2022-10-01T05:51:02;2.97;;;2.70;;
4313;SDS011;2170;48.794;9.182;2022-10-01T05:53:32;2.70;;;2.60;;
4313;SDS011;2170;48.794;9.182;2022-10-01T05:56:01;2.47;;;2.33;;
4313;SDS011;2170;48.794;9.182;2022-10-01T05:58:29;2.40;;;2.20;;
4313;SDS011;2170;48.794;9.182;2022-10-01T06:01:01;3.20;;;2.40;;
4313;SDS011;2170;48.794;9.182;2022-10-01T06:03:29;2.40;;;2.30;;
4313;SDS011;2170;48.794;9.182;2022-10-01T06:05:58;3.50;;;3.27;;
4313;SDS011;2170;48.794;9.182;2022-10-01T06:08:28;2.73;;;2.53;;
4313;SDS011;2170;48.794;9.182;2022-10-01T06:10:59;3.20;;;2.90;;
4313;SDS011;2170;48.794;9.182;2022-10-01T06:13:34;2.33;;;2.17;;
4313;SDS011;2170;48.794;9.182;2022-10-01T06:16:02;2.80;;;2.53;;
4313;SDS011;2170;48.794;9.182;2022-10-01T06:18:30;4.67;;;2.40;;
4313;SDS011;2170;48.794;9.182;2022-10-01T06:21:01;3.27;;;2.50;;
4313;SDS011;2170;48.794;9.182;2022-10-01T06:23:31;2.77;;;2.57;;
4313;SDS011;2170;48.794;9.182;2022-10-01T06:25:59;2.77;;;2.50;;
4313;SDS011;2170;48.794;9.182;2022-10-01T06:28:31;2.67;;;2.57;;
4313;SDS011;2170;48.794;9.182;2022-10-01T06:31:00;2.63;;;2.43;;
4313;SDS011;2170;48.794;9.182;2022-10-01T06:33:28;3.30;;;3.00;;
4313;SDS011;2170;48.794;9.182;2022-10-01T06:35:56;3.77;;;3.10;;
4313;SDS011;2170;48.794;9.182;2022-10-01T06:38:27;2.83;;;2.60;;
4313;SDS011;2170;48.794;9.182;2022-10-01T06:40:57;3.70;;;2.70;;
4313;SDS011;2170;48.794;9.182;2022-10-01T06:43:26;3.13;;;2.90;;
4313;SDS011;2170;48.794;9.182;2022-10-01T06:45:55;3.10;;;2.90;;
4313;SDS011;2170;48.794;9.182;2022-10-01T06:48:26;2.67;;;2.57;;
4313;SDS011;2170;48.794;9.182;2022-10-01T06:50:57;3.50;;;3.20;;
4313;SDS011;2170;48.794;9.182;2022-10-01T06:53:26;2.40;;;2.20;;
4313;SDS011;2170;48.794;9.182;2022-10-01T06:56:01;2.80;;;2.60;;
4313;SDS011;2170;48.794;9.182;2022-10-01T06:58:31;2.30;;;2.20;;
4313;SDS011;2170;48.794;9.182;2022-10-01T07:00:59;2.80;;;2.60;;
4313;SDS011;2170;48.794;9.182;2022-10-01T07:03:28;2.87;;;2.67;;
4313;SDS011;2170;48.794;9.182;2022-10-01T07:06:00;2.80;;;2.70;;
4313;SDS011;2170;48.794;9.182;2022-10-01T07:08:30;2.73;;;2.50;;
4313;SDS011;2170;48.794;9.182;2022-10-01T07:11:01;6.03;;;3.20;;
4313;SDS011;2170;48.794;9.182;2022-10-01T07:13:29;4.00;;;3.70;;
4313;SDS011;2170;48.794;9.182;2022-10-01T07:15:57;4.63;;;3.60;;
4313;SDS011;2170;48.794;9.182;2022-10-01T07:18:25;4.03;;;3.70;;
4313;SDS011;2170;48.794;9.182;2022-10-01T07:20:55;3.73;;;3.47;;
4313;SDS011;2170;48.794;9.182;2022-10-01T07:23:25;4.77;;;4.37;;
4313;SDS011;2170;48.794;9.182;2022-10-01T07:25:53;6.43;;;5.93;;
4313;SDS011;2170;48.794;9.182;2022-10-01T07:28:26;4.00;;;3.20;;
4313;SDS011;2170;48.794;9.182;2022-10-01T07:30:58;5.20;;;2.90;;
4313;SDS011;2170;48.794;9.182;2022-10-01T07:33:27;4.07;;;3.67;;
4313;SDS011;2170;48.794;9.182;2022-10-01T07:35:58;5.20;;;4.70;;
4313;SDS011;2170;48.794;9.182;2022-10-01T07:38:27;5.37;;;4.70;;
4313;SDS011;2170;48.794;9.182;2022-10-01T07:40:55;5.57;;;5.07;;
4313;SDS011;2170;48.794;9.182;2022-10-01T07:43:23;4.80;;;4.50;;
4313;SDS011;2170;48.794;9.182;2022-10-01T07:45:53;4.73;;;4.27;;
4313;SDS011;2170;48.794;9.182;2022-10-01T07:48:22;7.37;;;4.07;;
4313;SDS011;2170;48.794;9.182;2022-10-01T07:50:53;3.43;;;3.20;;
4313;SDS011;2170;48.794;9.182;2022-10-01T07:53:22;4.07;;;3.77;;
4313;SDS011;2170;48.794;9.182;2022-10-01T07:55:50;4.20;;;3.97;;
4313;SDS011;2170;48.794;9.182;2022-10-01T07:58:18;4.00;;;3.70;;
4313;SDS011;2170;48.794;9.182;2022-10-01T08:00:48;4.00;;;3.70;;
4313;SDS011;2170;48.794;9.182;2022-10-01T08:03:20;3.13;;;2.97;;
4313;SDS011;2170;48.794;9.182;2022-10-01T08:05:52;4.10;;;3.07;;
4313;SDS011;2170;48.794;9.182;2022-10-01T08:08:22;14.10;;;12.60;;
4313;SDS011;2170;48.794;9.182;2022-10-01T08:10:50;3.50;;;3.20;;
4313;SDS011;2170;48.794;9.182;2022-10-01T08:13:21;4.17;;;3.43;;
4313;SDS011;2170;48.794;9.182;2022-10-01T08:15:50;3.47;;;2.60;;
4313;SDS011;2170;48.794;9.182;2022-10-01T08:18:23;3.43;;;3.13;;
4313;SDS011;2170;48.794;9.182;2022-10-01T08:20:54;3.20;;;3.00;;
4313;SDS011;2170;48.794;9.182;2022-10-01T08:23:22;4.33;;;3.17;;
4313;SDS011;2170;48.794;9.182;2022-10-01T08:25:51;2.50;;;2.30;;
4313;SDS011;2170;48.794;9.182;2022-10-01T08:28:19;2.70;;;2.50;;
4313;SDS011;2170;48.794;9.182;2022-10-01T08:30:47;2.40;;;2.20;;
4313;SDS011;2170;48.794;9.182;2022-10-01T08:33:15;2.77;;;2.57;;
4313;SDS011;2170;48.794;9.182;2022-10-01T08:35:44;3.77;;;3.47;;
4313;SDS011;2170;48.794;9.182;2022-10-01T08:38:12;2.80;;;2.70;;
4313;SDS011;2170;48.794;9.182;2022-10-01T08:40:42;2.40;;;2.23;;
4313;SDS011;2170;48.794;9.182;2022-10-01T08:43:25;2.40;;;2.30;;
4313;SDS011;2170;48.794;9.182;2022-10-01T08:45:58;4.03;;;3.63;;
4313;SDS011;2170;48.794;9.182;2022-10-01T08:48:29;2.87;;;2.67;;
4313;SDS011;2170;48.794;9.182;2022-10-01T08:51:00;2.50;;;2.40;;
4313;SDS011;2170;48.794;9.182;2022-10-01T08:53:30;6.07;;;2.40;;
4313;SDS011;2170;48.794;9.182;2022-10-01T08:56:02;2.27;;;2.17;;
4313;SDS011;2170;48.794;9.182;2022-10-01T08:58:34;2.00;;;1.80;;
4313;SDS011;2170;48.794;9.182;2022-10-01T09:01:07;2.70;;;2.50;;
4313;SDS011;2170;48.794;9.182;2022-10-01T09:03:36;2.73;;;2.63;;
4313;SDS011;2170;48.794;9.182;2022-10-01T09:06:09;2.67;;;2.47;;
4313;SDS011;2170;48.794;9.182;2022-10-01T09:08:44;2.30;;;2.10;;
4313;SDS011;2170;48.794;9.182;2022-10-01T09:11:24;2.13;;;2.00;;
4313;SDS011;2170;48.794;9.182;2022-10-01T09:16:55;2.63;;;2.53;;
4313;SDS011;2170;48.794;9.182;2022-10-01T09:19:35;3.00;;;2.47;;
4313;SDS011;2170;48.794;9.182;2022-10-01T09:22:13;2.70;;;2.50;;
4313;SDS011;2170;48.794;9.182;2022-10-01T09:24:52;2.73;;;2.53;;
4313;SDS011;2170;48.794;9.182;2022-10-01T09:27:24;2.67;;;2.47;;
4313;SDS011;2170;48.794;9.182;2022-10-01T09:29:56;2.63;;;2.30;;
4313;SDS011;2170;48.794;9.182;2022-10-01T09:32:27;2.30;;;2.10;;
4313;SDS011;2170;48.794;9.182;2022-10-01T09:34:57;3.27;;;2.50;;
4313;SDS011;2170;48.794;9.182;2022-10-01T09:37:35;2.60;;;2.40;;
4313;SDS011;2170;48.794;9.182;2022-10-01T09:40:10;5.63;;;3.00;;
4313;SDS011;2170;48.794;9.182;2022-10-01T09:42:53;2.20;;;2.10;;
4313;SDS011;2170;48.794;9.182;2022-10-01T09:45:22;2.33;;;2.13;;
4313;SDS011;2170;48.794;9.182;2022-10-01T09:47:52;2.43;;;2.20;;
4313;SDS011;2170;48.794;9.182;2022-10-01T09:50:25;1.73;;;1.63;;
4313;SDS011;2170;48.794;9.182;2022-10-01T09:52:58;1.73;;;1.63;;
4313;SDS011;2170;48.794;9.182;2022-10-01T09:55:28;2.37;;;2.17;;
4313;SDS011;2170;48.794;9.182;2022-10-01T09:58:03;1.87;;;1.77;;
4313;SDS011;2170;48.794;9.182;2022-10-01T10:00:35;1.60;;;1.50;;
4313;SDS011;2170;48.794;9.182;2022-10-01T10:03:05;1.90;;;1.80;;
4313;SDS011;2170;48.794;9.182;2022-10-01T10:05:44;2.53;;;2.33;;
4313;SDS011;2170;48.794;9.182;2022-10-01T10:08:17;1.70;;;1.60;;
4313;SDS011;2170;48.794;9.182;2022-10-01T10:10:48;3.53;;;2.00;;
4313;SDS011;2170;48.794;9.182;2022-10-01T10:13:24;1.80;;;1.70;;
4313;SDS011;2170;48.794;9.182;2022-10-01T10:15:58;1.70;;;1.60;;
4313;SDS011;2170;48.794;9.182;2022-10-01T10:18:29;1.43;;;1.43;;
4313;SDS011;2170;48.794;9.182;2022-10-01T10:21:00;1.50;;;1.40;;
4313;SDS011;2170;48.794;9.182;2022-10-01T10:23:33;1.60;;;1.47;;
4313;SDS011;2170;48.794;9.182;2022-10-01T10:26:02;1.10;;;1.10;;
4313;SDS011;2170;48.794;9.182;2022-10-01T10:28:38;1.50;;;1.40;;
4313;SDS011;2170;48.794;9.182;2022-10-01T10:31:12;2.47;;;1.57;;
4313;SDS011;2170;48.794;9.182;2022-10-01T10:33:51;1.80;;;1.23;;
4313;SDS011;2170;48.794;9.182;2022-10-01T10:36:25;1.83;;;1.73;;
4313;SDS011;2170;48.794;9.182;2022-10-01T10:39:00;1.33;;;1.30;;
4313;SDS011;2170;48.794;9.182;2022-10-01T10:41:37;1.40;;;1.30;;
4313;SDS011;2170;48.794;9.182;2022-10-01T10:44:13;1.47;;;1.37;;
4313;SDS011;2170;48.794;9.182;2022-10-01T10:46:48;1.70;;;1.60;;
4313;SDS011;2170;48.794;9.182;2022-10-01T10:49:20;1.20;;;1.20;;
4313;SDS011;2170;48.794;9.182;2022-10-01T10:51:54;1.10;;;1.10;;
4313;SDS011;2170;48.794;9.182;2022-10-01T10:54:34;0.90;;;0.90;;
4313;SDS011;2170;48.794;9.182;2022-10-01T10:57:19;1.60;;;1.33;;
4313;SDS011;2170;48.794;9.182;2022-10-01T10:59:54;1.00;;;1.00;;
4313;SDS011;2170;48.794;9.182;2022-10-01T11:02:22;2.30;;;1.40;;
4313;SDS011;2170;48.794;9.182;2022-10-01T11:04:52;1.10;;;1.03;;
4313;SDS011;2170;48.794;9.182;2022-10-01T11:07:20;1.87;;;1.30;;
4313;SDS011;2170;48.794;9.182;2022-10-01T11:09:59;1.10;;;1.10;;
4313;SDS011;2170;48.794;9.182;2022-10-01T11:12:36;1.07;;;1.07;;
4313;SDS011;2170;48.794;9.182;2022-10-01T11:15:14;1.17;;;1.17;;
4313;SDS011;2170;48.794;9.182;2022-10-01T11:17:58;0.93;;;0.90;;
4313;SDS011;2170;48.794;9.182;2022-10-01T11:20:37;1.20;;;1.10;;
4313;SDS011;2170;48.794;9.182;2022-10-01T11:23:12;1.00;;;1.00;;
4313;SDS011;2170;48.794;9.182;2022-10-01T11:25:55;0.83;;;0.83;;
4313;SDS011;2170;48.794;9.182;2022-10-01T11:28:37;1.13;;;0.70;;
4313;SDS011;2170;48.794;9.182;2022-10-01T11:31:22;1.13;;;1.03;;
4313;SDS011;2170;48.794;9.182;2022-10-01T11:34:04;1.40;;;1.30;;
4313;SDS011;2170;48.794;9.182;2022-10-01T11:36:38;1.20;;;1.10;;
4313;SDS011;2170;48.794;9.182;2022-10-01T11:39:10;0.97;;;0.90;;
4313;SDS011;2170;48.794;9.182;2022-10-01T11:44:25;1.10;;;1.10;;
4313;SDS011;2170;48.794;9.182;2022-10-01T11:46:56;0.80;;;0.80;;
4313;SDS011;2170;48.794;9.182;2022-10-01T11:49:38;1.53;;;1.10;;
4313;SDS011;2170;48.794;9.182;2022-10-01T11:52:10;0.93;;;0.80;;
4313;SDS011;2170;48.794;9.182;2022-10-01T11:54:39;1.40;;;1.27;;
4313;SDS011;2170;48.794;9.182;2022-10-01T11:57:09;0.80;;;0.80;;
4313;SDS011;2170;48.794;9.182;2022-10-01T12:00:00;0.97;;;0.97;;
4313;SDS011;2170;48.794;9.182;2022-10-01T12:02:40;1.40;;;1.30;;
4313;SDS011;2170;48.794;9.182;2022-10-01T12:05:12;1.10;;;1.00;;
4313;SDS011;2170;48.794;9.182;2022-10-01T12:07:47;1.10;;;1.10;;
4313;SDS011;2170;48.794;9.182;2022-10-01T12:10:19;1.80;;;1.00;;
4313;SDS011;2170;48.794;9.182;2022-10-01T12:12:50;1.57;;;1.23;;
4313;SDS011;2170;48.794;9.182;2022-10-01T12:15:23;1.13;;;1.13;;
4313;SDS011;2170;48.794;9.182;2022-10-01T12:17:54;0.70;;;0.70;;
4313;SDS011;2170;48.794;9.182;2022-10-01T12:20:24;1.03;;;0.93;;
4313;SDS011;2170;48.794;9.182;2022-10-01T12:22:53;1.00;;;1.00;;
4313;SDS011;2170;48.794;9.182;2022-10-01T12:25:22;1.00;;;1.00;;
4313;SDS011;2170;48.794;9.182;2022-10-01T12:27:54;1.30;;;1.30;;
4313;SDS011;2170;48.794;9.182;2022-10-01T12:30:25;1.13;;;1.10;;
4313;SDS011;2170;48.794;9.182;2022-10-01T12:32:58;1.00;;;1.00;;
4313;SDS011;2170;48.794;9.182;2022-10-01T12:35:35;1.23;;;1.20;;
4313;SDS011;2170;48.794;9.182;2022-10-01T12:38:07;1.10;;;1.10;;
4313;SDS011;2170;48.794;9.182;2022-10-01T12:40:39;1.60;;;1.30;;
4313;SDS011;2170;48.794;9.182;2022-10-01T12:43:20;1.70;;;1.60;;
4313;SDS011;2170;48.794;9.182;2022-10-01T12:45:55;1.13;;;1.03;;
4313;SDS011;2170;48.794;9.182;2022-10-01T12:48:28;1.23;;;1.23;;
4313;SDS011;2170;48.794;9.182;2022-10-01T12:51:01;1.87;;;1.77;;
4313;SDS011;2170;48.794;9.182;2022-10-01T12:53:34;1.50;;;1.40;;
4313;SDS011;2170;48.794;9.182;2022-10-01T12:56:09;1.10;;;1.10;;
4313;SDS011;2170;48.794;9.182;2022-10-01T12:58:43;4.33;;;1.17;;
4313;SDS011;2170;48.794;9.182;2022-10-01T13:01:18;1.00;;;1.00;;
4313;SDS011;2170;48.794;9.182;2022-10-01T13:03:59;1.17;;;1.17;;
4313;SDS011;2170;48.794;9.182;2022-10-01T13:06:32;2.00;;;1.37;;
4313;SDS011;2170;48.794;9.182;2022-10-01T13:09:03;2.00;;;1.67;;
4313;SDS011;2170;48.794;9.182;2022-10-01T13:11:39;1.90;;;1.80;;
4313;SDS011;2170;48.794;9.182;2022-10-01T13:14:10;1.40;;;1.40;;
4313;SDS011;2170;48.794;9.182;2022-10-01T13:16:40;1.73;;;1.57;;
4313;SDS011;2170;48.794;9.182;2022-10-01T13:19:10;1.93;;;1.20;;
4313;SDS011;2170;48.794;9.182;2022-10-01T13:21:48;1.00;;;1.00;;
4313;SDS011;2170;48.794;9.182;2022-10-01T13:24:17;1.17;;;1.17;;
4313;SDS011;2170;48.794;9.182;2022-10-01T13:26:46;1.80;;;1.17;;
4313;SDS011;2170;48.794;9.182;2022-10-01T13:29:18;1.47;;;1.37;;
4313;SDS011;2170;48.794;9.182;2022-10-01T13:31:53;1.50;;;1.40;;
4313;SDS011;2170;48.794;9.182;2022-10-01T13:34:22;1.53;;;1.50;;
4313;SDS011;2170;48.794;9.182;2022-10-01T13:36:50;1.57;;;1.47;;
4313;SDS011;2170;48.794;9.182;2022-10-01T13:39:20;2.37;;;1.17;;
4313;SDS011;2170;48.794;9.182;2022-10-01T13:41:48;1.20;;;1.20;;
4313;SDS011;2170;48.794;9.182;2022-10-01T13:44:19;1.40;;;1.30;;
4313;SDS011;2170;48.794;9.182;2022-10-01T13:46:49;1.20;;;1.20;;
4313;SDS011;2170;48.794;9.182;2022-10-01T13:49:20;1.67;;;1.57;;
4313;SDS011;2170;48.794;9.182;2022-10-01T13:51:48;1.00;;;1.00;;
4313;SDS011;2170;48.794;9.182;2022-10-01T13:54:19;1.00;;;1.00;;
4313;SDS011;2170;48.794;9.182;2022-10-01T13:56:48;0.97;;;0.97;;
4313;SDS011;2170;48.794;9.182;2022-10-01T13:59:26;1.07;;;0.97;;
4313;SDS011;2170;48.794;9.182;2022-10-01T14:01:56;0.93;;;0.93;;
4313;SDS011;2170;48.794;9.182;2022-10-01T14:04:26;1.13;;;1.03;;
4313;SDS011;2170;48.794;9.182;2022-10-01T14:06:58;0.90;;;0.90;;
4313;SDS011;2170;48.794;9.182;2022-10-01T14:09:27;1.20;;;1.20;;
4313;SDS011;2170;48.794;9.182;2022-10-01T14:11:55;1.00;;;0.90;;
4313;SDS011;2170;48.794;9.182;2022-10-01T14:14:41;1.33;;;0.70;;
4313;SDS011;2170;48.794;9.182;2022-10-01T14:17:28;0.70;;;0.70;;
4313;SDS011;2170;48.794;9.182;2022-10-01T14:19:57;0.80;;;0.80;;
4313;SDS011;2170;48.794;9.182;2022-10-01T14:22:27;0.80;;;0.63;;
4313;SDS011;2170;48.794;9.182;2022-10-01T14:25:03;0.70;;;0.70;;
4313;SDS011;2170;48.794;9.182;2022-10-01T14:27:34;0.70;;;0.60;;
4313;SDS011;2170;48.794;9.182;2022-10-01T14:30:05;1.67;;;0.90;;
4313;SDS011;2170;48.794;9.182;2022-10-01T14:32:36;0.70;;;0.70;;
4313;SDS011;2170;48.794;9.182;2022-10-01T14:35:11;1.33;;;0.97;;
4313;SDS011;2170;48.794;9.182;2022-10-01T14:37:44;1.33;;;1.00;;
4313;SDS011;2170;48.794;9.182;2022-10-01T14:40:14;0.90;;;0.53;;
4313;SDS011;2170;48.794;9.182;2022-10-01T14:42:41;2.93;;;1.00;;
4313;SDS011;2170;48.794;9.182;2022-10-01T14:45:15;0.67;;;0.67;;
4313;SDS011;2170;48.794;9.182;2022-10-01T14:47:42;0.70;;;0.70;;
4313;SDS011;2170;48.794;9.182;2022-10-01T14:50:18;0.93;;;0.93;;
4313;SDS011;2170;48.794;9.182;2022-10-01T14:52:46;0.80;;;0.80;;
4313;SDS011;2170;48.794;9.182;2022-10-01T14:55:15;1.70;;;0.80;;
4313;SDS011;2170;48.794;9.182;2022-10-01T14:57:44;0.83;;;0.80;;
4313;SDS011;2170;48.794;9.182;2022-10-01T15:00:14;0.97;;;0.97;;
4313;SDS011;2170;48.794;9.182;2022-10-01T15:02:42;0.80;;;0.80;;
4313;SDS011;2170;48.794;9.182;2022-10-01T15:05:16;1.20;;;0.97;;
4313;SDS011;2170;48.794;9.182;2022-10-01T15:07:45;0.87;;;0.80;;
4313;SDS011;2170;48.794;9.182;2022-10-01T15:10:15;1.37;;;1.27;;
4313;SDS011;2170;48.794;9.182;2022-10-01T15:12:42;1.07;;;0.70;;
4313;SDS011;2170;48.794;9.182;2022-10-01T15:15:17;0.63;;;0.63;;
4313;SDS011;2170;48.794;9.182;2022-10-01T15:17:44;4.20;;;0.90;;
4313;SDS011;2170;48.794;9.182;2022-10-01T15:20:12;1.40;;;0.87;;
4313;SDS011;2170;48.794;9.182;2022-10-01T15:22:40;0.90;;;0.90;;
4313;SDS011;2170;48.794;9.182;2022-10-01T15:25:10;0.90;;;0.60;;
4313;SDS011;2170;48.794;9.182;2022-10-01T15:27:46;0.80;;;0.80;;
4313;SDS011;2170;48.794;9.182;2022-10-01T15:30:18;1.33;;;0.80;;
4313;SDS011;2170;48.794;9.182;2022-10-01T15:32:46;1.13;;;1.00;;
4313;SDS011;2170;48.794;9.182;2022-10-01T15:35:14;2.03;;;1.00;;
4313;SDS011;2170;48.794;9.182;2022-10-01T15:37:44;1.17;;;1.10;;
4313;SDS011;2170;48.794;9.182;2022-10-01T15:40:19;0.73;;;0.73;;
4313;SDS011;2170;48.794;9.182;2022-10-01T15:43:09;0.90;;;0.90;;
4313;SDS011;2170;48.794;9.182;2022-10-01T15:45:36;0.80;;;0.73;;
4313;SDS011;2170;48.794;9.182;2022-10-01T15:48:03;1.30;;;1.20;;
4313;SDS011;2170;48.794;9.182;2022-10-01T15:50:30;1.00;;;1.00;;
4313;SDS011;2170;48.794;9.182;2022-10-01T15:53:03;1.20;;;0.90;;